LAN335 SKPE-MPTO
Flight info
| Callsign | LAN335 |
|---|---|
| Flight time | 1h 3m |
| Altitude | 32000 |
| Route | NEBOV2B MATRO DCT PULOX DCT SIGUN ISOKO2C |
| Aircraft | A320/M-SDE3FGHIRWY/LB1 |
Departure
| Time | 2026-05-07 19:24 |
|---|---|
| Airport | Matecaña International Airport (SKPE) |
Arrival
| Time | 2026-05-07 20:27 |
|---|---|
| Airport | Tocumen International Airport (MPTO) |
| Time | Latitude | Longitude | Altitude | Speed | Heading |
|---|---|---|---|---|---|
| 2026-05-07 19:04 | 4.81478 | -75.73787 | 4426 ft | 0 kts | 342° |
| 2026-05-07 19:15 | 4.81472 | -75.73785 | 4426 ft | 2 kts | 340° |
| 2026-05-07 19:16 | 4.81460 | -75.73781 | 4428 ft | 2 kts | 343° |
| 2026-05-07 19:16 | 4.81444 | -75.73776 | 4428 ft | 2 kts | 353° |
| 2026-05-07 19:16 | 4.81440 | -75.73775 | 4428 ft | 0 kts | 6° |
| 2026-05-07 19:16 | 4.81430 | -75.73779 | 4428 ft | 2 kts | 71° |
| 2026-05-07 19:17 | 4.81428 | -75.73784 | 4427 ft | 0 kts | 71° |
| 2026-05-07 19:19 | 4.81432 | -75.73773 | 4429 ft | 6 kts | 71° |
| 2026-05-07 19:19 | 4.81457 | -75.73696 | 4427 ft | 17 kts | 71° |
| 2026-05-07 19:19 | 4.81496 | -75.73578 | 4429 ft | 18 kts | 72° |
| 2026-05-07 19:20 | 4.81495 | -75.73482 | 4430 ft | 12 kts | 139° |
| 2026-05-07 19:20 | 4.81439 | -75.73438 | 4429 ft | 10 kts | 107° |
| 2026-05-07 19:20 | 4.81452 | -75.73382 | 4429 ft | 7 kts | 68° |
| 2026-05-07 19:20 | 4.81468 | -75.73342 | 4428 ft | 5 kts | 68° |
| 2026-05-07 19:21 | 4.81482 | -75.73305 | 4428 ft | 8 kts | 70° |
| 2026-05-07 19:21 | 4.81507 | -75.73230 | 4430 ft | 15 kts | 71° |
| 2026-05-07 19:21 | 4.81542 | -75.73113 | 4428 ft | 18 kts | 64° |
| 2026-05-07 19:21 | 4.81574 | -75.73047 | 4428 ft | 5 kts | 147° |
| 2026-05-07 19:22 | 4.81564 | -75.73055 | 4429 ft | 1 kts | 224° |
| 2026-05-07 19:22 | 4.81553 | -75.73074 | 4428 ft | 7 kts | 246° |
| 2026-05-07 19:22 | 4.81548 | -75.73090 | 4428 ft | 0 kts | 253° |
| 2026-05-07 19:23 | 4.81483 | -75.73294 | 4428 ft | 73 kts | 252° |
| 2026-05-07 19:23 | 4.81243 | -75.74033 | 4424 ft | 147 kts | 252° |
| 2026-05-07 19:23 | 4.80896 | -75.75109 | 4929 ft | 168 kts | 252° |
| 2026-05-07 19:24 | 4.80528 | -75.76247 | 5808 ft | 173 kts | 252° |
| 2026-05-07 19:24 | 4.80156 | -75.77388 | 6301 ft | 180 kts | 252° |
| 2026-05-07 19:24 | 4.79741 | -75.78656 | 6487 ft | 202 kts | 252° |
| 2026-05-07 19:24 | 4.79285 | -75.80052 | 6766 ft | 219 kts | 252° |
| 2026-05-07 19:25 | 4.78824 | -75.81552 | 7114 ft | 231 kts | 262° |
| 2026-05-07 19:25 | 4.79137 | -75.83097 | 7813 ft | 232 kts | 305° |
| 2026-05-07 19:25 | 4.80413 | -75.84152 | 8187 ft | 252 kts | 336° |
| 2026-05-07 19:25 | 4.82139 | -75.84726 | 8610 ft | 272 kts | 346° |
| 2026-05-07 19:26 | 4.84038 | -75.85155 | 9159 ft | 285 kts | 347° |
| 2026-05-07 19:26 | 4.86001 | -75.85573 | 9800 ft | 292 kts | 348° |
| 2026-05-07 19:26 | 4.88015 | -75.85925 | 9959 ft | 295 kts | 351° |
| 2026-05-07 19:26 | 4.90047 | -75.86213 | 9959 ft | 295 kts | 352° |
| 2026-05-07 19:27 | 4.92077 | -75.86480 | 9965 ft | 294 kts | 352° |
| 2026-05-07 19:27 | 4.94112 | -75.86734 | 9978 ft | 294 kts | 352° |
| 2026-05-07 19:27 | 4.96177 | -75.86882 | 10204 ft | 307 kts | 5° |
| 2026-05-07 19:27 | 4.98311 | -75.86331 | 10522 ft | 328 kts | 23° |
| 2026-05-07 19:28 | 5.00342 | -75.85179 | 11029 ft | 339 kts | 36° |
| 2026-05-07 19:28 | 5.02119 | -75.83610 | 11806 ft | 342 kts | 46° |
| 2026-05-07 19:28 | 5.03770 | -75.81870 | 12466 ft | 348 kts | 46° |
| 2026-05-07 19:28 | 5.05468 | -75.80104 | 13094 ft | 354 kts | 46° |
| 2026-05-07 19:29 | 5.07169 | -75.78338 | 13740 ft | 358 kts | 46° |
| 2026-05-07 19:29 | 5.08904 | -75.76531 | 14379 ft | 362 kts | 46° |
| 2026-05-07 19:29 | 5.10662 | -75.74715 | 15024 ft | 365 kts | 43° |
| 2026-05-07 19:29 | 5.12710 | -75.73208 | 15645 ft | 367 kts | 28° |
| 2026-05-07 19:30 | 5.15084 | -75.72242 | 16259 ft | 370 kts | 14° |
| 2026-05-07 19:30 | 5.17638 | -75.71895 | 16840 ft | 373 kts | 359° |
| 2026-05-07 19:30 | 5.20223 | -75.72176 | 17393 ft | 376 kts | 349° |
| 2026-05-07 19:30 | 5.22800 | -75.72665 | 17961 ft | 379 kts | 349° |
| 2026-05-07 19:31 | 5.25405 | -75.73154 | 18511 ft | 382 kts | 349° |
| 2026-05-07 19:31 | 5.28029 | -75.73644 | 19058 ft | 385 kts | 349° |
| 2026-05-07 19:31 | 5.30680 | -75.74139 | 19562 ft | 389 kts | 349° |
| 2026-05-07 19:31 | 5.33353 | -75.74637 | 20046 ft | 393 kts | 349° |
| 2026-05-07 19:32 | 5.36062 | -75.75140 | 20476 ft | 397 kts | 349° |
| 2026-05-07 19:32 | 5.38790 | -75.75643 | 20916 ft | 401 kts | 349° |
| 2026-05-07 19:32 | 5.41547 | -75.76151 | 21344 ft | 404 kts | 349° |
| 2026-05-07 19:32 | 5.44318 | -75.76664 | 21766 ft | 407 kts | 349° |
| 2026-05-07 19:33 | 5.47114 | -75.77183 | 22164 ft | 410 kts | 349° |
| 2026-05-07 19:33 | 5.49924 | -75.77706 | 22548 ft | 413 kts | 349° |
| 2026-05-07 19:33 | 5.52761 | -75.78238 | 22887 ft | 416 kts | 349° |
| 2026-05-07 19:33 | 5.55579 | -75.78769 | 23199 ft | 420 kts | 349° |
| 2026-05-07 19:34 | 5.58469 | -75.79311 | 23619 ft | 421 kts | 349° |
| 2026-05-07 19:34 | 5.61366 | -75.79852 | 24054 ft | 422 kts | 349° |
| 2026-05-07 19:34 | 5.64235 | -75.80386 | 24425 ft | 424 kts | 349° |
| 2026-05-07 19:34 | 5.67141 | -75.81017 | 24744 ft | 427 kts | 342° |
| 2026-05-07 19:35 | 5.69876 | -75.82116 | 25091 ft | 428 kts | 332° |
| 2026-05-07 19:35 | 5.72414 | -75.83741 | 25436 ft | 430 kts | 321° |
| 2026-05-07 19:35 | 5.74581 | -75.85795 | 25783 ft | 432 kts | 310° |
| 2026-05-07 19:35 | 5.76497 | -75.88096 | 26159 ft | 433 kts | 309° |
| 2026-05-07 19:36 | 5.78429 | -75.90425 | 26599 ft | 433 kts | 309° |
| 2026-05-07 19:36 | 5.80363 | -75.92752 | 26979 ft | 434 kts | 309° |
| 2026-05-07 19:36 | 5.82285 | -75.95062 | 27315 ft | 436 kts | 309° |
| 2026-05-07 19:36 | 5.84240 | -75.97409 | 27665 ft | 438 kts | 309° |
| 2026-05-07 19:37 | 5.86212 | -75.99775 | 27962 ft | 441 kts | 310° |
| 2026-05-07 19:37 | 5.88163 | -76.02117 | 28229 ft | 444 kts | 309° |
| 2026-05-07 19:37 | 5.90156 | -76.04512 | 28502 ft | 447 kts | 309° |
| 2026-05-07 19:37 | 5.92163 | -76.06927 | 28729 ft | 451 kts | 309° |
| 2026-05-07 19:38 | 5.94190 | -76.09364 | 28950 ft | 454 kts | 309° |
| 2026-05-07 19:38 | 5.96214 | -76.11796 | 29173 ft | 456 kts | 310° |
| 2026-05-07 19:38 | 5.98247 | -76.14238 | 29389 ft | 458 kts | 309° |
| 2026-05-07 19:38 | 6.00296 | -76.16703 | 29555 ft | 461 kts | 309° |
| 2026-05-07 19:39 | 6.02353 | -76.19181 | 29826 ft | 462 kts | 309° |
| 2026-05-07 19:39 | 6.04411 | -76.21658 | 30140 ft | 462 kts | 309° |
| 2026-05-07 19:39 | 6.06468 | -76.24133 | 30470 ft | 461 kts | 309° |
| 2026-05-07 19:39 | 6.08528 | -76.26609 | 30783 ft | 462 kts | 309° |
| 2026-05-07 19:40 | 6.10587 | -76.29083 | 31088 ft | 462 kts | 309° |
| 2026-05-07 19:40 | 6.12643 | -76.31556 | 31463 ft | 460 kts | 309° |
| 2026-05-07 19:40 | 6.14689 | -76.34018 | 31829 ft | 458 kts | 309° |
| 2026-05-07 19:40 | 6.16726 | -76.36476 | 32157 ft | 458 kts | 309° |
| 2026-05-07 19:41 | 6.18763 | -76.38935 | 32491 ft | 457 kts | 309° |
| 2026-05-07 19:41 | 6.20789 | -76.41381 | 32828 ft | 455 kts | 309° |
| 2026-05-07 19:41 | 6.22815 | -76.43825 | 32974 ft | 453 kts | 309° |
| 2026-05-07 19:41 | 6.24816 | -76.46229 | 33011 ft | 444 kts | 310° |
| 2026-05-07 19:42 | 6.28771 | -76.50977 | 33008 ft | 440 kts | 309° |
| 2026-05-07 19:42 | 6.32700 | -76.55723 | 33009 ft | 442 kts | 309° |
| 2026-05-07 19:43 | 6.36614 | -76.60449 | 33010 ft | 438 kts | 309° |
| 2026-05-07 19:43 | 6.40482 | -76.65115 | 33008 ft | 437 kts | 309° |
| 2026-05-07 19:44 | 6.44371 | -76.69810 | 33006 ft | 436 kts | 309° |
| 2026-05-07 19:44 | 6.48256 | -76.74500 | 33005 ft | 436 kts | 309° |
| 2026-05-07 19:45 | 6.52146 | -76.79192 | 33005 ft | 436 kts | 309° |
| 2026-05-07 19:45 | 6.56033 | -76.83883 | 33005 ft | 436 kts | 309° |
| 2026-05-07 19:46 | 6.59919 | -76.88573 | 33004 ft | 436 kts | 309° |
| 2026-05-07 19:46 | 6.63775 | -76.93230 | 33004 ft | 436 kts | 309° |
| 2026-05-07 19:47 | 6.67661 | -76.97927 | 33001 ft | 436 kts | 309° |
| 2026-05-07 19:47 | 6.71538 | -77.02606 | 33000 ft | 435 kts | 309° |
| 2026-05-07 19:48 | 6.75410 | -77.07285 | 32995 ft | 435 kts | 309° |
| 2026-05-07 19:48 | 6.79283 | -77.11978 | 32990 ft | 435 kts | 309° |
| 2026-05-07 19:49 | 6.83127 | -77.16634 | 32987 ft | 435 kts | 309° |
| 2026-05-07 19:49 | 6.86996 | -77.21317 | 32987 ft | 436 kts | 309° |
| 2026-05-07 19:50 | 6.90877 | -77.26004 | 32996 ft | 436 kts | 309° |
| 2026-05-07 19:50 | 6.94755 | -77.30703 | 32995 ft | 436 kts | 309° |
| 2026-05-07 19:51 | 6.98637 | -77.35403 | 32994 ft | 436 kts | 309° |
| 2026-05-07 19:51 | 7.02518 | -77.40097 | 32993 ft | 436 kts | 309° |
| 2026-05-07 19:52 | 7.06402 | -77.44796 | 32995 ft | 436 kts | 309° |
| 2026-05-07 19:52 | 7.10273 | -77.49497 | 32982 ft | 436 kts | 309° |
| 2026-05-07 19:53 | 7.13515 | -77.53437 | 32986 ft | 436 kts | 309° |
| 2026-05-07 19:53 | 7.17390 | -77.58137 | 32986 ft | 436 kts | 309° |
| 2026-05-07 19:54 | 7.21273 | -77.62843 | 32989 ft | 437 kts | 309° |
| 2026-05-07 19:54 | 7.25135 | -77.67524 | 32993 ft | 438 kts | 309° |
| 2026-05-07 19:55 | 7.29027 | -77.72242 | 32996 ft | 438 kts | 309° |
| 2026-05-07 19:55 | 7.32916 | -77.76970 | 33006 ft | 438 kts | 309° |
| 2026-05-07 19:56 | 7.36811 | -77.81699 | 33005 ft | 438 kts | 309° |
| 2026-05-07 19:56 | 7.40720 | -77.86410 | 33004 ft | 438 kts | 310° |
| 2026-05-07 19:57 | 7.44726 | -77.91046 | 32998 ft | 438 kts | 311° |
| 2026-05-07 19:57 | 7.48748 | -77.95659 | 32998 ft | 438 kts | 311° |
| 2026-05-07 19:58 | 7.52764 | -78.00286 | 32994 ft | 438 kts | 311° |
| 2026-05-07 19:58 | 7.56736 | -78.04896 | 32998 ft | 438 kts | 310° |
| 2026-05-07 19:59 | 7.60706 | -78.09523 | 32673 ft | 433 kts | 310° |
| 2026-05-07 19:59 | 7.62675 | -78.11817 | 32424 ft | 432 kts | 310° |
| 2026-05-07 19:59 | 7.64642 | -78.14102 | 32174 ft | 431 kts | 311° |
| 2026-05-07 20:00 | 7.66599 | -78.16373 | 31919 ft | 428 kts | 311° |
| 2026-05-07 20:00 | 7.68553 | -78.18639 | 31664 ft | 428 kts | 310° |
| 2026-05-07 20:00 | 7.70505 | -78.20905 | 31426 ft | 427 kts | 311° |
| 2026-05-07 20:00 | 7.72449 | -78.23159 | 31172 ft | 425 kts | 311° |
| 2026-05-07 20:01 | 7.74388 | -78.25407 | 30919 ft | 423 kts | 311° |
| 2026-05-07 20:01 | 7.76313 | -78.27638 | 30671 ft | 420 kts | 311° |
| 2026-05-07 20:01 | 7.78217 | -78.29850 | 30424 ft | 416 kts | 310° |
| 2026-05-07 20:01 | 7.80104 | -78.32047 | 30171 ft | 413 kts | 310° |
| 2026-05-07 20:02 | 7.81979 | -78.34232 | 29920 ft | 411 kts | 310° |
| 2026-05-07 20:02 | 7.83845 | -78.36407 | 29670 ft | 409 kts | 310° |
| 2026-05-07 20:02 | 7.85703 | -78.38571 | 29420 ft | 407 kts | 310° |
| 2026-05-07 20:02 | 7.87557 | -78.40726 | 29170 ft | 406 kts | 310° |
| 2026-05-07 20:03 | 7.89380 | -78.42843 | 28922 ft | 404 kts | 310° |
| 2026-05-07 20:03 | 7.91220 | -78.44980 | 28671 ft | 402 kts | 310° |
| 2026-05-07 20:03 | 7.93049 | -78.47106 | 28417 ft | 401 kts | 310° |
| 2026-05-07 20:03 | 7.94873 | -78.49228 | 28172 ft | 399 kts | 310° |
| 2026-05-07 20:04 | 7.96688 | -78.51342 | 27922 ft | 398 kts | 310° |
| 2026-05-07 20:04 | 7.98491 | -78.53447 | 28026 ft | 397 kts | 310° |
| 2026-05-07 20:04 | 8.02108 | -78.57670 | 28011 ft | 398 kts | 310° |
| 2026-05-07 20:05 | 8.05723 | -78.61892 | 28010 ft | 398 kts | 310° |
| 2026-05-07 20:05 | 8.09352 | -78.66110 | 28004 ft | 398 kts | 311° |
| 2026-05-07 20:06 | 8.12982 | -78.70329 | 28010 ft | 398 kts | 310° |
| 2026-05-07 20:06 | 8.16606 | -78.74548 | 28008 ft | 398 kts | 310° |
| 2026-05-07 20:07 | 8.20224 | -78.78776 | 27999 ft | 398 kts | 310° |
| 2026-05-07 20:07 | 8.23814 | -78.82881 | 27995 ft | 384 kts | 316° |
| 2026-05-07 20:08 | 8.25750 | -78.84724 | 27762 ft | 381 kts | 316° |
| 2026-05-07 20:08 | 8.27676 | -78.86546 | 27512 ft | 378 kts | 316° |
| 2026-05-07 20:08 | 8.29592 | -78.88355 | 27261 ft | 376 kts | 316° |
| 2026-05-07 20:08 | 8.31503 | -78.90159 | 27011 ft | 375 kts | 316° |
| 2026-05-07 20:09 | 8.33403 | -78.91953 | 26761 ft | 373 kts | 316° |
| 2026-05-07 20:09 | 8.35294 | -78.93742 | 26510 ft | 372 kts | 316° |
| 2026-05-07 20:09 | 8.37178 | -78.95526 | 26260 ft | 370 kts | 316° |
| 2026-05-07 20:10 | 8.40928 | -78.99081 | 25448 ft | 369 kts | 316° |
| 2026-05-07 20:10 | 8.42796 | -79.00850 | 24932 ft | 368 kts | 316° |
| 2026-05-07 20:10 | 8.44659 | -79.02616 | 24505 ft | 365 kts | 316° |
| 2026-05-07 20:10 | 8.46509 | -79.04368 | 24005 ft | 364 kts | 316° |
| 2026-05-07 20:11 | 8.48340 | -79.06104 | 23629 ft | 359 kts | 316° |
| 2026-05-07 20:11 | 8.50147 | -79.07817 | 22983 ft | 354 kts | 316° |
| 2026-05-07 20:11 | 8.51932 | -79.09507 | 22409 ft | 349 kts | 316° |
| 2026-05-07 20:11 | 8.53698 | -79.11180 | 21926 ft | 346 kts | 316° |
| 2026-05-07 20:12 | 8.55447 | -79.12838 | 21448 ft | 345 kts | 316° |
| 2026-05-07 20:12 | 8.57194 | -79.14498 | 20964 ft | 345 kts | 316° |
| 2026-05-07 20:12 | 8.58923 | -79.16138 | 20570 ft | 343 kts | 316° |
| 2026-05-07 20:12 | 8.60660 | -79.17785 | 20087 ft | 343 kts | 316° |
| 2026-05-07 20:13 | 8.62385 | -79.19421 | 19565 ft | 336 kts | 316° |
| 2026-05-07 20:13 | 8.64074 | -79.21026 | 19053 ft | 331 kts | 316° |
| 2026-05-07 20:13 | 8.65746 | -79.22613 | 18596 ft | 328 kts | 316° |
| 2026-05-07 20:13 | 8.67408 | -79.24188 | 18145 ft | 326 kts | 316° |
| 2026-05-07 20:14 | 8.69055 | -79.25750 | 17669 ft | 324 kts | 316° |
| 2026-05-07 20:14 | 8.70693 | -79.27306 | 17194 ft | 324 kts | 316° |
| 2026-05-07 20:14 | 8.72332 | -79.28863 | 16844 ft | 322 kts | 316° |
| 2026-05-07 20:14 | 8.73968 | -79.30419 | 16410 ft | 323 kts | 316° |
| 2026-05-07 20:15 | 8.75597 | -79.31968 | 16039 ft | 322 kts | 316° |
| 2026-05-07 20:15 | 8.77220 | -79.33509 | 15551 ft | 317 kts | 316° |
| 2026-05-07 20:15 | 8.78899 | -79.34876 | 15002 ft | 312 kts | 331° |
| 2026-05-07 20:15 | 8.80928 | -79.35562 | 14538 ft | 308 kts | 354° |
| 2026-05-07 20:16 | 8.83043 | -79.35402 | 14080 ft | 306 kts | 17° |
| 2026-05-07 20:16 | 8.84932 | -79.34442 | 13641 ft | 305 kts | 38° |
| 2026-05-07 20:16 | 8.86582 | -79.33100 | 13198 ft | 304 kts | 39° |
| 2026-05-07 20:16 | 8.88226 | -79.31751 | 12750 ft | 305 kts | 39° |
| 2026-05-07 20:17 | 8.89880 | -79.30394 | 12335 ft | 306 kts | 39° |
| 2026-05-07 20:17 | 8.91527 | -79.29044 | 11944 ft | 306 kts | 39° |
| 2026-05-07 20:17 | 8.93177 | -79.27697 | 11661 ft | 302 kts | 38° |
| 2026-05-07 20:17 | 8.94809 | -79.26369 | 11309 ft | 301 kts | 38° |
| 2026-05-07 20:18 | 8.96445 | -79.25060 | 10951 ft | 299 kts | 34° |
| 2026-05-07 20:18 | 8.98256 | -79.24042 | 10593 ft | 297 kts | 26° |
| 2026-05-07 20:18 | 9.00111 | -79.23126 | 10232 ft | 296 kts | 25° |
| 2026-05-07 20:18 | 9.01953 | -79.22215 | 9871 ft | 294 kts | 26° |
| 2026-05-07 20:19 | 9.03788 | -79.21307 | 9508 ft | 293 kts | 26° |
| 2026-05-07 20:19 | 9.05613 | -79.20402 | 9150 ft | 291 kts | 26° |
| 2026-05-07 20:19 | 9.07429 | -79.19500 | 8793 ft | 290 kts | 26° |
| 2026-05-07 20:19 | 9.09232 | -79.18603 | 8416 ft | 288 kts | 26° |
| 2026-05-07 20:20 | 9.11027 | -79.17711 | 8038 ft | 286 kts | 26° |
| 2026-05-07 20:20 | 9.12812 | -79.16824 | 7665 ft | 285 kts | 26° |
| 2026-05-07 20:20 | 9.14617 | -79.15927 | 6954 ft | 295 kts | 26° |
| 2026-05-07 20:20 | 9.16467 | -79.15010 | 6568 ft | 293 kts | 26° |
| 2026-05-07 20:21 | 9.18270 | -79.14209 | 6427 ft | 279 kts | 12° |
| 2026-05-07 20:21 | 9.20131 | -79.14315 | 6280 ft | 266 kts | 336° |
| 2026-05-07 20:21 | 9.21585 | -79.15428 | 5722 ft | 269 kts | 306° |
| 2026-05-07 20:21 | 9.22519 | -79.17084 | 5250 ft | 267 kts | 294° |
| 2026-05-07 20:22 | 9.23221 | -79.18795 | 4770 ft | 260 kts | 291° |
| 2026-05-07 20:22 | 9.23810 | -79.20483 | 4304 ft | 255 kts | 282° |
| 2026-05-07 20:22 | 9.23733 | -79.22200 | 3822 ft | 238 kts | 253° |
| 2026-05-07 20:22 | 9.23040 | -79.23672 | 3361 ft | 227 kts | 232° |
| 2026-05-07 20:23 | 9.21993 | -79.24812 | 2997 ft | 215 kts | 226° |
| 2026-05-07 20:23 | 9.20976 | -79.25864 | 2682 ft | 204 kts | 226° |
| 2026-05-07 20:23 | 9.19995 | -79.26878 | 2653 ft | 200 kts | 226° |
| 2026-05-07 20:23 | 9.19030 | -79.27890 | 2624 ft | 199 kts | 226° |
| 2026-05-07 20:24 | 9.18062 | -79.28895 | 2550 ft | 198 kts | 227° |
| 2026-05-07 20:24 | 9.17159 | -79.29857 | 2492 ft | 178 kts | 226° |
| 2026-05-07 20:24 | 9.16311 | -79.30743 | 2186 ft | 172 kts | 226° |
| 2026-05-07 20:24 | 9.15488 | -79.31590 | 1940 ft | 165 kts | 226° |
| 2026-05-07 20:25 | 9.14704 | -79.32403 | 1746 ft | 158 kts | 226° |
| 2026-05-07 20:25 | 9.13966 | -79.33172 | 1578 ft | 148 kts | 226° |
| 2026-05-07 20:25 | 9.13254 | -79.33910 | 1311 ft | 144 kts | 226° |
| 2026-05-07 20:25 | 9.12557 | -79.34622 | 1143 ft | 142 kts | 227° |
| 2026-05-07 20:26 | 9.11966 | -79.35414 | 986 ft | 141 kts | 236° |
| 2026-05-07 20:26 | 9.11350 | -79.36169 | 756 ft | 141 kts | 223° |
| 2026-05-07 20:26 | 9.10565 | -79.36767 | 446 ft | 142 kts | 212° |
| 2026-05-07 20:26 | 9.09719 | -79.37263 | 206 ft | 140 kts | 211° |
| 2026-05-07 20:27 | 9.08887 | -79.37761 | 55 ft | 135 kts | 210° |
| 2026-05-07 20:27 | 9.08216 | -79.38168 | 45 ft | 75 kts | 210° |
| 2026-05-07 20:27 | 9.07968 | -79.38317 | 48 ft | 28 kts | 211° |
| 2026-05-07 20:27 | 9.07811 | -79.38411 | 49 ft | 24 kts | 211° |
| 2026-05-07 20:28 | 9.07706 | -79.38437 | 49 ft | 11 kts | 145° |
| 2026-05-07 20:28 | 9.07650 | -79.38358 | 36 ft | 11 kts | 130° |
| 2026-05-07 20:28 | 9.07585 | -79.38374 | 34 ft | 10 kts | 211° |
| 2026-05-07 20:28 | 9.07531 | -79.38407 | 34 ft | 8 kts | 211° |
| 2026-05-07 20:29 | 9.07484 | -79.38435 | 34 ft | 7 kts | 210° |
| 2026-05-07 20:29 | 9.07440 | -79.38462 | 34 ft | 7 kts | 212° |
| 2026-05-07 20:29 | 9.07395 | -79.38490 | 35 ft | 9 kts | 212° |
| 2026-05-07 20:29 | 9.07332 | -79.38530 | 35 ft | 11 kts | 212° |
| 2026-05-07 20:30 | 9.07250 | -79.38573 | 34 ft | 15 kts | 202° |
| 2026-05-07 20:30 | 9.07151 | -79.38624 | 33 ft | 13 kts | 213° |
| 2026-05-07 20:30 | 9.07109 | -79.38603 | 31 ft | 4 kts | 122° |
| 2026-05-07 20:30 | 9.07106 | -79.38600 | 31 ft | 0 kts | 122° |